createdAt,value
2016-11-29T00:00:01.165Z,73377
2016-11-29T00:00:09.862Z,73379
2016-11-29T00:00:18.535Z,73386
2016-11-29T00:00:27.261Z,73375
2016-11-29T00:00:35.981Z,73375
2016-11-29T00:00:44.711Z,73378
2016-11-29T00:00:53.429Z,73375
2016-11-29T00:01:02.170Z,73374
2016-11-29T00:01:10.874Z,73373
2016-11-29T00:01:19.585Z,73373
2016-11-29T00:01:28.290Z,73373
2016-11-29T00:01:37.007Z,73374
2016-11-29T00:01:45.703Z,73383
2016-11-29T00:01:54.401Z,73378
2016-11-29T00:02:03.111Z,73381
2016-11-29T00:02:11.815Z,73385
2016-11-29T00:02:20.484Z,73386
2016-11-29T00:02:29.207Z,73387
2016-11-29T00:02:37.923Z,73385
2016-11-29T00:02:46.634Z,73387
2016-11-29T00:02:55.362Z,73388
2016-11-29T00:03:04.071Z,73385
2016-11-29T00:03:13.077Z,73387
2016-11-29T00:03:21.749Z,73388
2016-11-29T00:03:30.429Z,73389
2016-11-29T00:03:39.203Z,73385
2016-11-29T00:03:47.891Z,73386
2016-11-29T00:03:56.596Z,73387
2016-11-29T00:04:05.307Z,73388
2016-11-29T00:04:14.047Z,73387
2016-11-29T00:04:22.778Z,73390
2016-11-29T00:04:31.464Z,73386
2016-11-29T00:04:40.165Z,73390
2016-11-29T00:04:48.908Z,73386
2016-11-29T00:04:57.672Z,73390
2016-11-29T00:05:06.367Z,73388
2016-11-29T00:05:15.069Z,73390
2016-11-29T00:05:23.733Z,73390
2016-11-29T00:05:32.392Z,73387
2016-11-29T00:05:41.123Z,73389
2016-11-29T00:05:49.818Z,73393
2016-11-29T00:05:58.523Z,73388
2016-11-29T00:06:07.270Z,73390
2016-11-29T00:06:15.944Z,73388
2016-11-29T00:06:24.682Z,73390
2016-11-29T00:06:33.378Z,73387
2016-11-29T00:06:42.076Z,73388
2016-11-29T00:06:50.784Z,73387
2016-11-29T00:06:59.481Z,73385
2016-11-29T00:07:08.161Z,73384
2016-11-29T00:07:17.155Z,73382
2016-11-29T00:07:25.853Z,73383
2016-11-29T00:07:34.572Z,73382
2016-11-29T00:07:43.291Z,73388
2016-11-29T00:07:51.987Z,73383
2016-11-29T00:08:00.689Z,73382
2016-11-29T00:08:09.404Z,73384
2016-11-29T00:08:18.172Z,73389
2016-11-29T00:08:27.142Z,73384
2016-11-29T00:08:35.887Z,73384
2016-11-29T00:08:44.577Z,73383
2016-11-29T00:08:53.278Z,73385
2016-11-29T00:09:02.283Z,73383
2016-11-29T00:09:11.022Z,73386
2016-11-29T00:09:19.730Z,73382
2016-11-29T00:09:28.388Z,73385
2016-11-29T00:09:37.111Z,73385
2016-11-29T00:09:45.826Z,73386
2016-11-29T00:09:54.498Z,73388
2016-11-29T00:10:03.215Z,73387
2016-11-29T00:10:11.896Z,73388
2016-11-29T00:10:20.629Z,73390
2016-11-29T00:10:29.316Z,73394
2016-11-29T00:10:38.070Z,73396
2016-11-29T00:10:46.806Z,73389
2016-11-29T00:10:55.538Z,73393
2016-11-29T00:11:04.236Z,73391
2016-11-29T00:11:12.978Z,73389
2016-11-29T00:11:21.648Z,73389
2016-11-29T00:11:30.328Z,73390
2016-11-29T00:11:39.067Z,73388
2016-11-29T00:11:47.782Z,73389
2016-11-29T00:11:56.491Z,73387
2016-11-29T00:12:05.228Z,73380
2016-11-29T00:12:13.902Z,73388
2016-11-29T00:12:22.658Z,73387
2016-11-29T00:12:31.392Z,73390
2016-11-29T00:12:40.132Z,73390
2016-11-29T00:12:48.836Z,73388
2016-11-29T00:12:57.565Z,73388
2016-11-29T00:13:06.292Z,73389
2016-11-29T00:13:15.016Z,73386
2016-11-29T00:13:23.752Z,73389
2016-11-29T00:13:32.490Z,73389
2016-11-29T00:13:41.211Z,73387
2016-11-29T00:13:49.903Z,73390
2016-11-29T00:13:58.604Z,73390
2016-11-29T00:14:07.306Z,73389
2016-11-29T00:14:16.311Z,73391
2016-11-29T00:14:25.040Z,73384
2016-11-29T00:14:33.725Z,73385
2016-11-29T00:14:42.398Z,73386
2016-11-29T00:14:51.097Z,73389
2016-11-29T00:14:59.806Z,73390
2016-11-29T00:15:08.521Z,73388
2016-11-29T00:15:17.217Z,73389
2016-11-29T00:15:25.929Z,73391
2016-11-29T00:15:34.604Z,73391
2016-11-29T00:15:43.309Z,73391
2016-11-29T00:15:52.276Z,73389
2016-11-29T00:16:00.978Z,73391
2016-11-29T00:16:09.701Z,73391
2016-11-29T00:16:18.380Z,73390
2016-11-29T00:16:27.131Z,73390
2016-11-29T00:16:35.823Z,73396
2016-11-29T00:16:44.532Z,73400
2016-11-29T00:16:53.263Z,73399
2016-11-29T00:17:01.971Z,73398
2016-11-29T00:17:10.638Z,73400
2016-11-29T00:17:19.336Z,73397
2016-11-29T00:17:28.049Z,73399
2016-11-29T00:17:36.803Z,73401
2016-11-29T00:17:45.484Z,73398
2016-11-29T00:17:54.170Z,73396
2016-11-29T00:18:02.851Z,73398
2016-11-29T00:18:11.562Z,73400
2016-11-29T00:18:20.267Z,73395
2016-11-29T00:18:28.955Z,73392
2016-11-29T00:18:37.626Z,73398
2016-11-29T00:18:46.352Z,73396
2016-11-29T00:18:55.092Z,73399
2016-11-29T00:19:03.812Z,73401
2016-11-29T00:19:12.527Z,73399
2016-11-29T00:19:21.256Z,73400
2016-11-29T00:19:30.011Z,73399
2016-11-29T00:19:38.693Z,73400
2016-11-29T00:19:47.445Z,73397
2016-11-29T00:19:56.122Z,73393
2016-11-29T00:20:04.826Z,73399
2016-11-29T00:20:13.491Z,73393
2016-11-29T00:20:22.162Z,73393
2016-11-29T00:20:30.911Z,73394
2016-11-29T00:20:39.624Z,73398
2016-11-29T00:20:48.334Z,73397
2016-11-29T00:20:57.025Z,73394
2016-11-29T00:21:05.705Z,73401
2016-11-29T00:21:14.370Z,73399
2016-11-29T00:21:23.069Z,73393
2016-11-29T00:21:31.831Z,73396
2016-11-29T00:21:40.544Z,73395
2016-11-29T00:21:49.260Z,73396
2016-11-29T00:21:57.965Z,73393
2016-11-29T00:22:06.638Z,73395
2016-11-29T00:22:15.352Z,73397
2016-11-29T00:22:24.055Z,73398
2016-11-29T00:22:32.794Z,73396
2016-11-29T00:22:41.506Z,73399
2016-11-29T00:22:50.201Z,73399
2016-11-29T00:22:58.907Z,73397
2016-11-29T00:23:07.628Z,73396
2016-11-29T00:23:16.317Z,73399
2016-11-29T00:23:25.018Z,73395
2016-11-29T00:23:33.794Z,73397
2016-11-29T00:23:42.483Z,73398
2016-11-29T00:23:51.154Z,73398
2016-11-29T00:23:59.890Z,73393
2016-11-29T00:24:08.578Z,73399
2016-11-29T00:24:17.276Z,73401
2016-11-29T00:24:25.967Z,73400
2016-11-29T00:24:34.655Z,73404
2016-11-29T00:24:43.344Z,73403
2016-11-29T00:24:52.044Z,73398
2016-11-29T00:25:00.779Z,73398
2016-11-29T00:25:09.472Z,73395
2016-11-29T00:25:18.143Z,73396
2016-11-29T00:25:26.840Z,73397
2016-11-29T00:25:35.515Z,73398
2016-11-29T00:25:44.215Z,73395
2016-11-29T00:25:52.909Z,73397
2016-11-29T00:26:01.631Z,73396
2016-11-29T00:26:10.312Z,73394
2016-11-29T00:26:19.045Z,73398
2016-11-29T00:26:27.724Z,73392
2016-11-29T00:26:36.417Z,73396
2016-11-29T00:26:45.156Z,73393
2016-11-29T00:26:53.861Z,73394
2016-11-29T00:27:02.872Z,73396
2016-11-29T00:27:11.604Z,73393
2016-11-29T00:27:20.329Z,73389
2016-11-29T00:27:29.055Z,73394
2016-11-29T00:27:37.770Z,73394
2016-11-29T00:27:46.509Z,73392
2016-11-29T00:27:55.219Z,73394
2016-11-29T00:28:03.947Z,73390
2016-11-29T00:28:12.925Z,73391
2016-11-29T00:28:21.634Z,73396
2016-11-29T00:28:30.316Z,73394
2016-11-29T00:28:39.027Z,73384
2016-11-29T00:28:47.768Z,73396
2016-11-29T00:28:56.450Z,73396
2016-11-29T00:29:05.142Z,73403
2016-11-29T00:29:13.839Z,73399
2016-11-29T00:29:22.578Z,73391
2016-11-29T00:29:31.277Z,73395
2016-11-29T00:29:39.992Z,73393
2016-11-29T00:29:48.716Z,73392
2016-11-29T00:29:57.453Z,73393
2016-11-29T00:30:06.432Z,73393
2016-11-29T00:30:15.150Z,73394
2016-11-29T00:30:23.871Z,73396
2016-11-29T00:30:32.596Z,73394
2016-11-29T00:30:41.343Z,73394
2016-11-29T00:30:50.080Z,73394
2016-11-29T00:30:58.798Z,73393
2016-11-29T00:31:07.536Z,73396
2016-11-29T00:31:16.232Z,73388
2016-11-29T00:31:24.938Z,73393
2016-11-29T00:31:33.641Z,73393
2016-11-29T00:31:42.384Z,73394
2016-11-29T00:31:51.419Z,73392
2016-11-29T00:32:00.157Z,73396
2016-11-29T00:32:08.882Z,73396
2016-11-29T00:32:17.574Z,73395
2016-11-29T00:32:26.320Z,73396
2016-11-29T00:32:34.984Z,73393
2016-11-29T00:32:43.702Z,73395
2016-11-29T00:32:52.397Z,73398
2016-11-29T00:33:01.070Z,73403
2016-11-29T00:33:09.775Z,73401
2016-11-29T00:33:18.477Z,73396
2016-11-29T00:33:27.170Z,73399
2016-11-29T00:33:35.903Z,73394
2016-11-29T00:33:44.649Z,73398
2016-11-29T00:33:53.364Z,73401
2016-11-29T00:34:02.072Z,73399
2016-11-29T00:34:10.817Z,73392
2016-11-29T00:34:19.539Z,73395
2016-11-29T00:34:28.270Z,73393
2016-11-29T00:34:36.938Z,73397
2016-11-29T00:34:45.653Z,73397
2016-11-29T00:34:54.372Z,73399
2016-11-29T00:35:03.363Z,73401
2016-11-29T00:35:12.040Z,73399
2016-11-29T00:35:20.713Z,73396
2016-11-29T00:35:29.410Z,73404
2016-11-29T00:35:38.112Z,73404
2016-11-29T00:35:46.833Z,73402
2016-11-29T00:35:55.525Z,73400
2016-11-29T00:36:04.204Z,73404
2016-11-29T00:36:12.894Z,73401
2016-11-29T00:36:21.630Z,73405
2016-11-29T00:36:30.372Z,73408
2016-11-29T00:36:39.080Z,73398
2016-11-29T00:36:48.091Z,73398
2016-11-29T00:36:57.129Z,73397
2016-11-29T00:37:05.840Z,73401
2016-11-29T00:37:14.548Z,73400
2016-11-29T00:37:23.230Z,73399
2016-11-29T00:37:31.944Z,73398
2016-11-29T00:37:40.696Z,73398
2016-11-29T00:37:49.371Z,73395
2016-11-29T00:37:58.052Z,73400
2016-11-29T00:38:06.736Z,73399
2016-11-29T00:38:15.388Z,73401
2016-11-29T00:38:24.089Z,73396
2016-11-29T00:38:32.837Z,73394
2016-11-29T00:38:41.559Z,73395
2016-11-29T00:38:50.259Z,73392
2016-11-29T00:38:58.947Z,73394
2016-11-29T00:39:07.664Z,73392
2016-11-29T00:39:16.368Z,73394
2016-11-29T00:39:25.130Z,73399
2016-11-29T00:39:33.850Z,73400
2016-11-29T00:39:42.579Z,73400
2016-11-29T00:39:51.297Z,73400
2016-11-29T00:40:00.016Z,73400
2016-11-29T00:40:08.713Z,73406
2016-11-29T00:40:17.401Z,73402
2016-11-29T00:40:26.102Z,73402
2016-11-29T00:40:34.780Z,73405
2016-11-29T00:40:43.499Z,73404
2016-11-29T00:40:52.225Z,73403
2016-11-29T00:41:00.969Z,73402
2016-11-29T00:41:09.666Z,73404
2016-11-29T00:41:18.376Z,73404
2016-11-29T00:41:27.073Z,73400
2016-11-29T00:41:35.753Z,73403
2016-11-29T00:41:44.468Z,73398
2016-11-29T00:41:53.148Z,73401
2016-11-29T00:42:01.866Z,73397
2016-11-29T00:42:10.578Z,73396
2016-11-29T00:42:19.293Z,73402
2016-11-29T00:42:28.012Z,73394
2016-11-29T00:42:36.751Z,73395
2016-11-29T00:42:45.473Z,73396
2016-11-29T00:42:54.203Z,73391
2016-11-29T00:43:02.925Z,73397
2016-11-29T00:43:11.670Z,73401
2016-11-29T00:43:20.422Z,73403
2016-11-29T00:43:29.131Z,73400
2016-11-29T00:43:37.830Z,73399
2016-11-29T00:43:46.530Z,73401
2016-11-29T00:43:55.210Z,73397
2016-11-29T00:44:03.900Z,73398
2016-11-29T00:44:12.591Z,73402
2016-11-29T00:44:21.263Z,73395
2016-11-29T00:44:29.958Z,73400
2016-11-29T00:44:38.644Z,73395
2016-11-29T00:44:47.344Z,73402
2016-11-29T00:44:56.044Z,73405
2016-11-29T00:45:04.785Z,73399
2016-11-29T00:45:13.504Z,73397
2016-11-29T00:45:22.240Z,73399
2016-11-29T00:45:30.967Z,73398
2016-11-29T00:45:39.680Z,73399
2016-11-29T00:45:48.355Z,73399
2016-11-29T00:45:57.016Z,73400
2016-11-29T00:46:05.736Z,73403
2016-11-29T00:46:14.439Z,73401
2016-11-29T00:46:23.157Z,73401
2016-11-29T00:46:31.888Z,73399
2016-11-29T00:46:40.549Z,73404
2016-11-29T00:46:49.288Z,73401
2016-11-29T00:46:58.006Z,73402
2016-11-29T00:47:06.721Z,73404
2016-11-29T00:47:15.425Z,73404
2016-11-29T00:47:24.133Z,73406
2016-11-29T00:47:32.856Z,73406
2016-11-29T00:47:41.605Z,73408
2016-11-29T00:47:50.337Z,73405
2016-11-29T00:47:59.065Z,73407
2016-11-29T00:48:07.762Z,73400
2016-11-29T00:48:16.481Z,73397
2016-11-29T00:48:25.209Z,73401
2016-11-29T00:48:33.902Z,73398
2016-11-29T00:48:42.612Z,73397
2016-11-29T00:48:51.323Z,73395
2016-11-29T00:49:00.007Z,73398
2016-11-29T00:49:08.740Z,73398
2016-11-29T00:49:17.424Z,73400
2016-11-29T00:49:26.162Z,73394
2016-11-29T00:49:34.876Z,73402
2016-11-29T00:49:43.619Z,73400
2016-11-29T00:49:52.343Z,73400
2016-11-29T00:50:01.064Z,73400
2016-11-29T00:50:09.747Z,73405
2016-11-29T00:50:18.456Z,73407
2016-11-29T00:50:27.204Z,73408
2016-11-29T00:50:35.935Z,73409
2016-11-29T00:50:44.631Z,73404
2016-11-29T00:50:53.332Z,73406
2016-11-29T00:51:02.037Z,73409
2016-11-29T00:51:11.063Z,73404
2016-11-29T00:51:19.804Z,73407
2016-11-29T00:51:28.795Z,73411
2016-11-29T00:51:37.503Z,73411
2016-11-29T00:51:46.181Z,73411
2016-11-29T00:51:54.873Z,73410
2016-11-29T00:52:03.563Z,73402
2016-11-29T00:52:12.261Z,73407
2016-11-29T00:52:20.972Z,73404
2016-11-29T00:52:29.645Z,73400
2016-11-29T00:52:38.301Z,73404
2016-11-29T00:52:46.973Z,73403
2016-11-29T00:52:55.690Z,73404
2016-11-29T00:53:04.392Z,73401
2016-11-29T00:53:13.097Z,73401
2016-11-29T00:53:21.777Z,73401
2016-11-29T00:53:30.518Z,73402
2016-11-29T00:53:39.242Z,73399
2016-11-29T00:53:47.953Z,73406
2016-11-29T00:53:57.009Z,73404
2016-11-29T00:54:05.712Z,73400
2016-11-29T00:54:14.749Z,73400
2016-11-29T00:54:23.452Z,73397
2016-11-29T00:54:32.137Z,73407
2016-11-29T00:54:40.840Z,73401
2016-11-29T00:54:49.551Z,73405
2016-11-29T00:54:58.205Z,73406
2016-11-29T00:55:06.863Z,73412
2016-11-29T00:55:15.566Z,73414
2016-11-29T00:55:24.230Z,73412
2016-11-29T00:55:32.901Z,73408
2016-11-29T00:55:41.582Z,73408
2016-11-29T00:55:50.267Z,73404
2016-11-29T00:55:58.988Z,73406
2016-11-29T00:56:07.708Z,73407
2016-11-29T00:56:16.401Z,73406
2016-11-29T00:56:25.102Z,73405
2016-11-29T00:56:33.862Z,73400
2016-11-29T00:56:42.599Z,73406
2016-11-29T00:56:51.372Z,73399
2016-11-29T00:57:00.107Z,73403
2016-11-29T00:57:08.818Z,73406
2016-11-29T00:57:17.562Z,73404
2016-11-29T00:57:26.263Z,73402
2016-11-29T00:57:34.983Z,73405
2016-11-29T00:57:43.699Z,73405
2016-11-29T00:57:52.353Z,73404
2016-11-29T00:58:01.048Z,73405
2016-11-29T00:58:09.752Z,73400
2016-11-29T00:58:18.421Z,73402
2016-11-29T00:58:27.125Z,73406
2016-11-29T00:58:35.860Z,73408
2016-11-29T00:58:44.584Z,73408
2016-11-29T00:58:53.278Z,73412
2016-11-29T00:59:01.974Z,73415
2016-11-29T00:59:10.715Z,73413
2016-11-29T00:59:19.390Z,73412
2016-11-29T00:59:28.097Z,73416
2016-11-29T00:59:36.806Z,73409
2016-11-29T00:59:45.555Z,73413
2016-11-29T00:59:54.268Z,73411
2016-11-29T01:00:02.988Z,73409
2016-11-29T01:00:11.705Z,73407
2016-11-29T01:00:20.361Z,73407
2016-11-29T01:00:29.339Z,73410
2016-11-29T01:00:38.049Z,73410
2016-11-29T01:00:46.754Z,73414
2016-11-29T01:00:55.764Z,73419
2016-11-29T01:01:04.511Z,73419
2016-11-29T01:01:13.203Z,73424
2016-11-29T01:01:21.924Z,73422
2016-11-29T01:01:30.604Z,73419
2016-11-29T01:01:39.315Z,73413
2016-11-29T01:01:48.013Z,73416
2016-11-29T01:01:56.735Z,73417
2016-11-29T01:02:05.446Z,73420
2016-11-29T01:02:14.144Z,73415
2016-11-29T01:02:22.844Z,73415
2016-11-29T01:02:31.557Z,73414
2016-11-29T01:02:40.233Z,73411
2016-11-29T01:02:48.926Z,73410
2016-11-29T01:02:57.656Z,73409
2016-11-29T01:03:06.373Z,73409
2016-11-29T01:03:15.070Z,73410
2016-11-29T01:03:23.755Z,73417
2016-11-29T01:03:32.428Z,73417
2016-11-29T01:03:41.126Z,73416
2016-11-29T01:03:49.800Z,73415
2016-11-29T01:03:58.515Z,73413
2016-11-29T01:04:07.246Z,73414
2016-11-29T01:04:15.986Z,73413
2016-11-29T01:04:24.674Z,73412
2016-11-29T01:04:33.390Z,73411
2016-11-29T01:04:42.118Z,73412
2016-11-29T01:04:50.862Z,73412
2016-11-29T01:04:59.580Z,73414
2016-11-29T01:05:08.336Z,73417
2016-11-29T01:05:17.054Z,73419
2016-11-29T01:05:25.788Z,73414
2016-11-29T01:05:34.516Z,73410
2016-11-29T01:05:43.189Z,73413
2016-11-29T01:05:51.889Z,73413
2016-11-29T01:06:00.587Z,73411
2016-11-29T01:06:09.277Z,73412
2016-11-29T01:06:17.976Z,73419
2016-11-29T01:06:26.668Z,73414
2016-11-29T01:06:35.378Z,73416
2016-11-29T01:06:44.086Z,73417
2016-11-29T01:06:52.799Z,73411
2016-11-29T01:07:01.516Z,73409
2016-11-29T01:07:10.197Z,73411
2016-11-29T01:07:18.907Z,73415
2016-11-29T01:07:27.622Z,73410
2016-11-29T01:07:36.342Z,73406
2016-11-29T01:07:45.082Z,73408
2016-11-29T01:07:53.814Z,73408
2016-11-29T01:08:02.477Z,73408
2016-11-29T01:08:11.219Z,73409
2016-11-29T01:08:19.938Z,73408
2016-11-29T01:08:28.632Z,73408
2016-11-29T01:08:37.401Z,73413
2016-11-29T01:08:46.136Z,73415
2016-11-29T01:08:54.833Z,73413
2016-11-29T01:09:03.843Z,73413
2016-11-29T01:09:12.562Z,73416
2016-11-29T01:09:21.276Z,73415
2016-11-29T01:09:29.976Z,73411
2016-11-29T01:09:38.652Z,73417
2016-11-29T01:09:47.363Z,73415
2016-11-29T01:09:56.079Z,73418
2016-11-29T01:10:04.766Z,73419
2016-11-29T01:10:13.453Z,73421
2016-11-29T01:10:22.178Z,73417
2016-11-29T01:10:30.866Z,73420
2016-11-29T01:10:39.576Z,73420
2016-11-29T01:10:48.273Z,73417
2016-11-29T01:10:56.994Z,73417
2016-11-29T01:11:05.716Z,73419
2016-11-29T01:11:14.385Z,73421
2016-11-29T01:11:23.102Z,73423
2016-11-29T01:11:31.804Z,73422
2016-11-29T01:11:40.513Z,73425
2016-11-29T01:11:49.187Z,73423
2016-11-29T01:11:57.895Z,73421
2016-11-29T01:12:06.594Z,73421
2016-11-29T01:12:15.279Z,73423
2016-11-29T01:12:24.002Z,73421
2016-11-29T01:12:32.705Z,73418
2016-11-29T01:12:41.404Z,73418
2016-11-29T01:12:50.109Z,73422
2016-11-29T01:12:58.802Z,73414
2016-11-29T01:13:07.530Z,73410
2016-11-29T01:13:16.270Z,73415
2016-11-29T01:13:24.990Z,73418
2016-11-29T01:13:33.686Z,73408
2016-11-29T01:13:42.462Z,73419
2016-11-29T01:13:51.192Z,73416
2016-11-29T01:13:59.890Z,73415
2016-11-29T01:14:08.565Z,73418
2016-11-29T01:14:17.232Z,73413
2016-11-29T01:14:25.924Z,73413
2016-11-29T01:14:34.641Z,73412
2016-11-29T01:14:43.365Z,73420
2016-11-29T01:14:52.080Z,73421
2016-11-29T01:15:00.772Z,73422
2016-11-29T01:15:09.462Z,73422
2016-11-29T01:15:18.170Z,73419
2016-11-29T01:15:26.888Z,73421
2016-11-29T01:15:35.640Z,73420
2016-11-29T01:15:44.318Z,73419
2016-11-29T01:15:53.016Z,73421
2016-11-29T01:16:01.699Z,73421
2016-11-29T01:16:10.411Z,73424
2016-11-29T01:16:19.097Z,73424
2016-11-29T01:16:27.794Z,73422
2016-11-29T01:16:36.494Z,73422
2016-11-29T01:16:45.228Z,73421
2016-11-29T01:16:53.908Z,73427
2016-11-29T01:17:02.650Z,73419
2016-11-29T01:17:11.347Z,73424
2016-11-29T01:17:20.061Z,73425
2016-11-29T01:17:28.770Z,73421
2016-11-29T01:17:37.492Z,73419
2016-11-29T01:17:46.186Z,73421
2016-11-29T01:17:54.879Z,73419
2016-11-29T01:18:03.592Z,73418
2016-11-29T01:18:12.286Z,73420
2016-11-29T01:18:21.006Z,73421
2016-11-29T01:18:29.672Z,73417
2016-11-29T01:18:38.419Z,73420
2016-11-29T01:18:47.112Z,73419
2016-11-29T01:18:55.865Z,73420
2016-11-29T01:19:04.572Z,73417
2016-11-29T01:19:13.304Z,73419
2016-11-29T01:19:22.046Z,73421
2016-11-29T01:19:30.755Z,73417
2016-11-29T01:19:39.443Z,73418
2016-11-29T01:19:48.192Z,73416
2016-11-29T01:19:56.907Z,73416
2016-11-29T01:20:05.588Z,73423
2016-11-29T01:20:14.281Z,73418
2016-11-29T01:20:22.969Z,73418
2016-11-29T01:20:31.694Z,73420
2016-11-29T01:20:40.393Z,73421
2016-11-29T01:20:49.100Z,73418
2016-11-29T01:20:57.790Z,73417
2016-11-29T01:21:06.526Z,73418
2016-11-29T01:21:15.272Z,73418
2016-11-29T01:21:23.975Z,73422
2016-11-29T01:21:32.957Z,73420
2016-11-29T01:21:41.647Z,73417
2016-11-29T01:21:50.327Z,73426
2016-11-29T01:21:59.063Z,73424
2016-11-29T01:22:07.776Z,73421
2016-11-29T01:22:16.471Z,73428
2016-11-29T01:22:25.430Z,73425
2016-11-29T01:22:34.128Z,73420
2016-11-29T01:22:43.439Z,73424
2016-11-29T01:22:52.135Z,73422
2016-11-29T01:23:00.835Z,73417
2016-11-29T01:23:09.584Z,73420
2016-11-29T01:23:18.314Z,73425
2016-11-29T01:23:27.043Z,73421
2016-11-29T01:23:36.054Z,73422
2016-11-29T01:23:44.741Z,73421
2016-11-29T01:23:53.432Z,73419
2016-11-29T01:24:02.154Z,73419
2016-11-29T01:24:10.892Z,73419
2016-11-29T01:24:19.653Z,73420
2016-11-29T01:24:28.331Z,73414
2016-11-29T01:24:37.338Z,73412
2016-11-29T01:24:46.052Z,73420
2016-11-29T01:24:54.747Z,73421
2016-11-29T01:25:03.497Z,73419
2016-11-29T01:25:12.221Z,73424
2016-11-29T01:25:20.918Z,73422
2016-11-29T01:25:29.589Z,73422
2016-11-29T01:25:38.276Z,73420
2016-11-29T01:25:46.981Z,73424
2016-11-29T01:25:55.688Z,73425
2016-11-29T01:26:04.432Z,73425
2016-11-29T01:26:13.138Z,73432
2016-11-29T01:26:21.875Z,73426
2016-11-29T01:26:30.565Z,73426
2016-11-29T01:26:39.261Z,73424
2016-11-29T01:26:47.988Z,73422
2016-11-29T01:26:56.684Z,73419
2016-11-29T01:27:05.367Z,73419
2016-11-29T01:27:14.126Z,73420
2016-11-29T01:27:22.851Z,73429
2016-11-29T01:27:31.537Z,73426
2016-11-29T01:27:40.259Z,73426
2016-11-29T01:27:48.977Z,73419
2016-11-29T01:27:57.716Z,73419
2016-11-29T01:28:06.406Z,73421
2016-11-29T01:28:15.101Z,73421
2016-11-29T01:28:23.751Z,73422
2016-11-29T01:28:32.454Z,73419
2016-11-29T01:28:41.146Z,73425
2016-11-29T01:28:49.817Z,73423
2016-11-29T01:28:58.495Z,73421
2016-11-29T01:29:07.214Z,73418
2016-11-29T01:29:15.907Z,73421
2016-11-29T01:29:24.607Z,73425
2016-11-29T01:29:33.314Z,73429
2016-11-29T01:29:41.988Z,73422
2016-11-29T01:29:50.725Z,73427
2016-11-29T01:29:59.385Z,73425
2016-11-29T01:30:08.074Z,73421
2016-11-29T01:30:16.749Z,73425
2016-11-29T01:30:25.465Z,73426
2016-11-29T01:30:34.161Z,73416
2016-11-29T01:30:42.876Z,73419
2016-11-29T01:30:51.601Z,73414
2016-11-29T01:31:00.333Z,73413
2016-11-29T01:31:09.027Z,73414
2016-11-29T01:31:17.729Z,73415
2016-11-29T01:31:26.459Z,73414
2016-11-29T01:31:35.155Z,73417
2016-11-29T01:31:43.856Z,73415
2016-11-29T01:31:52.574Z,73421
2016-11-29T01:32:01.310Z,73420
2016-11-29T01:32:10.045Z,73419
2016-11-29T01:32:18.738Z,73421
2016-11-29T01:32:27.410Z,73422
2016-11-29T01:32:36.085Z,73418
2016-11-29T01:32:44.809Z,73422
2016-11-29T01:32:53.519Z,73419
2016-11-29T01:33:02.243Z,73423
2016-11-29T01:33:11.316Z,73417
2016-11-29T01:33:20.016Z,73421
2016-11-29T01:33:28.733Z,73424
2016-11-29T01:33:37.409Z,73426
2016-11-29T01:33:46.071Z,73428
2016-11-29T01:33:54.778Z,73423
2016-11-29T01:34:03.457Z,73425
2016-11-29T01:34:12.172Z,73424
2016-11-29T01:34:20.931Z,73420
2016-11-29T01:34:29.625Z,73426
2016-11-29T01:34:38.339Z,73429
2016-11-29T01:34:47.056Z,73433
2016-11-29T01:34:55.752Z,73430
2016-11-29T01:35:04.493Z,73421
2016-11-29T01:35:13.219Z,73422
2016-11-29T01:35:21.928Z,73424
2016-11-29T01:35:30.586Z,73426
2016-11-29T01:35:39.297Z,73429
2016-11-29T01:35:47.997Z,73424
2016-11-29T01:35:56.685Z,73418
2016-11-29T01:36:05.690Z,73422
2016-11-29T01:36:14.392Z,73421
2016-11-29T01:36:23.108Z,73420
2016-11-29T01:36:31.809Z,73421
2016-11-29T01:36:40.497Z,73418
2016-11-29T01:36:49.223Z,73415
2016-11-29T01:36:57.941Z,73416
2016-11-29T01:37:06.623Z,73416
2016-11-29T01:37:15.354Z,73417
2016-11-29T01:37:24.078Z,73426
2016-11-29T01:37:32.791Z,73419
2016-11-29T01:37:41.543Z,73422
2016-11-29T01:37:50.229Z,73419
2016-11-29T01:37:58.956Z,73419
2016-11-29T01:38:07.651Z,73419
2016-11-29T01:38:16.359Z,73419
2016-11-29T01:38:25.074Z,73420
2016-11-29T01:38:33.802Z,73419
2016-11-29T01:38:42.538Z,73419
2016-11-29T01:38:51.252Z,73422
2016-11-29T01:38:59.937Z,73424
2016-11-29T01:39:08.666Z,73420
2016-11-29T01:39:17.354Z,73420
2016-11-29T01:39:26.069Z,73422
2016-11-29T01:39:34.801Z,73420
2016-11-29T01:39:43.544Z,73416
2016-11-29T01:39:52.273Z,73419
2016-11-29T01:40:00.977Z,73422
2016-11-29T01:40:09.691Z,73420
2016-11-29T01:40:18.386Z,73415
2016-11-29T01:40:27.104Z,73418
2016-11-29T01:40:35.809Z,73420
2016-11-29T01:40:44.523Z,73424
2016-11-29T01:40:53.253Z,73425
2016-11-29T01:41:01.955Z,73422
2016-11-29T01:41:10.635Z,73422
2016-11-29T01:41:19.342Z,73419
2016-11-29T01:41:28.053Z,73420
2016-11-29T01:41:36.768Z,73414
2016-11-29T01:41:45.507Z,73413
2016-11-29T01:41:54.205Z,73420
2016-11-29T01:42:02.930Z,73417
2016-11-29T01:42:11.646Z,73419
2016-11-29T01:42:20.337Z,73415
2016-11-29T01:42:29.029Z,73420
2016-11-29T01:42:37.708Z,73416
2016-11-29T01:42:46.410Z,73414
2016-11-29T01:42:55.157Z,73419
2016-11-29T01:43:03.901Z,73415
2016-11-29T01:43:12.638Z,73417
2016-11-29T01:43:21.346Z,73418
2016-11-29T01:43:30.046Z,73416
2016-11-29T01:43:38.759Z,73415
2016-11-29T01:43:47.439Z,73418
2016-11-29T01:43:56.148Z,73417
2016-11-29T01:44:05.121Z,73418
2016-11-29T01:44:13.793Z,73416
2016-11-29T01:44:22.468Z,73420
2016-11-29T01:44:31.215Z,73416
2016-11-29T01:44:39.944Z,73414
2016-11-29T01:44:48.666Z,73413
2016-11-29T01:44:57.352Z,73416
2016-11-29T01:45:06.070Z,73414
2016-11-29T01:45:14.810Z,73421
2016-11-29T01:45:23.526Z,73418
2016-11-29T01:45:32.237Z,73418
2016-11-29T01:45:40.983Z,73411
2016-11-29T01:45:49.672Z,73423
2016-11-29T01:45:58.403Z,73419
2016-11-29T01:46:07.144Z,73416
2016-11-29T01:46:15.862Z,73419
2016-11-29T01:46:24.588Z,73423
2016-11-29T01:46:33.278Z,73420
2016-11-29T01:46:41.931Z,73417
2016-11-29T01:46:50.634Z,73421
2016-11-29T01:46:59.372Z,73416
2016-11-29T01:47:08.107Z,73422
2016-11-29T01:47:17.100Z,73422
2016-11-29T01:47:25.829Z,73426
2016-11-29T01:47:34.481Z,73421
2016-11-29T01:47:43.179Z,73421
2016-11-29T01:47:51.876Z,73417
2016-11-29T01:48:00.867Z,73421
2016-11-29T01:48:09.589Z,73423
2016-11-29T01:48:18.285Z,73420
2016-11-29T01:48:26.968Z,73423
2016-11-29T01:48:35.677Z,73417
2016-11-29T01:48:44.349Z,73421
2016-11-29T01:48:53.079Z,73421
2016-11-29T01:49:01.780Z,73416
2016-11-29T01:49:10.455Z,73419
2016-11-29T01:49:19.183Z,73423
2016-11-29T01:49:27.937Z,73420
2016-11-29T01:49:36.665Z,73422
2016-11-29T01:49:45.376Z,73415
2016-11-29T01:49:54.076Z,73423
2016-11-29T01:50:02.775Z,73420
2016-11-29T01:50:11.771Z,73423
2016-11-29T01:50:20.511Z,73417
2016-11-29T01:50:29.536Z,73424
2016-11-29T01:50:38.202Z,73422
2016-11-29T01:50:46.932Z,73421
2016-11-29T01:50:55.626Z,73418
2016-11-29T01:51:04.326Z,73418
2016-11-29T01:51:13.057Z,73415
2016-11-29T01:51:21.784Z,73415
2016-11-29T01:51:30.536Z,73416
2016-11-29T01:51:39.246Z,73414
2016-11-29T01:51:47.995Z,73415
2016-11-29T01:51:56.689Z,73414
2016-11-29T01:52:05.432Z,73419
2016-11-29T01:52:14.443Z,73421